Terminal Aerodrome Forecast
Issued by NWS Des Moines, IA

Home | Current Version | Previous Version | Text Only | Print | Product List | Glossary On
Versions: 1 2 3 4 5 6 7 8 9 10 11 12 13
000
FTUS43 KDMX 242326
TAFALO
TAF
KALO 242326Z 2500/2524 16017G23KT P6SM FEW120
     FM250300 16008KT P6SM SCT230 WS020/17040KT
     FM250800 16008KT P6SM BKN110
     FM251500 15007KT P6SM VCSH OVC080
     FM251800 13008KT P6SM OVC050=

USA.gov is the U.S. government's official web portal to all federal, state and local government web resources and services.